createdAt,value
2022-12-23T00:02:38.625Z,66.32
2022-12-23T00:05:41.409Z,61.33
2022-12-23T00:08:44.110Z,59.38
2022-12-23T00:12:05.644Z,61.58
2022-12-23T00:15:09.227Z,61.72
2022-12-23T00:18:11.841Z,62.95
2022-12-23T00:21:16.358Z,58.13
2022-12-23T00:24:19.121Z,59.70
2022-12-23T00:27:21.344Z,65.03
2022-12-23T00:30:24.374Z,56.58
2022-12-23T00:33:32.370Z,59.45
2022-12-23T00:36:35.063Z,59.60
2022-12-23T00:39:59.875Z,60.85
2022-12-23T00:43:05.180Z,62.90
2022-12-23T00:46:07.505Z,62.75
2022-12-23T00:49:34.113Z,61.55
2022-12-23T00:52:36.771Z,62.40
2022-12-23T00:55:39.247Z,62.28
2022-12-23T00:58:41.545Z,63.10
2022-12-23T01:02:03.046Z,67.03
2022-12-23T01:08:26.628Z,64.18
2022-12-23T01:11:28.811Z,66.60
2022-12-23T01:14:31.469Z,67.80
2022-12-23T01:17:33.956Z,63.63
2022-12-23T01:20:40.395Z,60.30
2022-12-23T01:23:42.622Z,62.75
2022-12-23T01:26:45.355Z,59.00
2022-12-23T01:29:47.497Z,63.55
2022-12-23T01:32:50.073Z,63.15
2022-12-23T01:35:52.269Z,59.70
2022-12-23T01:38:56.915Z,62.53
2022-12-23T01:42:18.773Z,62.88
2022-12-23T01:45:28.994Z,59.65
2022-12-23T01:48:31.195Z,62.92
2022-12-23T01:51:33.849Z,62.92
2022-12-23T01:54:37.087Z,62.35
2022-12-23T01:57:42.548Z,64.72
2022-12-23T02:01:03.932Z,66.95
2022-12-23T02:04:11.059Z,70.78
2022-12-23T02:07:32.628Z,75.25
2022-12-23T02:11:10.227Z,66.37
2022-12-23T02:14:47.871Z,76.57
2022-12-23T02:17:53.050Z,76.30
2022-12-23T02:21:24.296Z,81.28
2022-12-23T02:25:04.669Z,82.15
2022-12-23T02:28:15.722Z,81.25
2022-12-23T02:31:30.600Z,87.65
2022-12-23T02:34:35.643Z,91.82
2022-12-23T02:37:57.943Z,86.03
2022-12-23T02:41:16.306Z,94.53
2022-12-23T02:44:32.603Z,85.93
2022-12-23T02:47:43.487Z,93.35
2022-12-23T02:53:57.460Z,111.78
2022-12-23T02:57:03.613Z,116.20
2022-12-23T03:00:26.221Z,127.18
2022-12-23T03:03:29.479Z,147.68
2022-12-23T03:06:39.395Z,143.70
2022-12-23T03:10:20.534Z,110.97
2022-12-23T03:13:41.257Z,122.60
2022-12-23T03:17:21.598Z,107.07
2022-12-23T03:20:42.416Z,102.03
2022-12-23T03:27:06.632Z,107.63
2022-12-23T03:30:14.132Z,129.40
2022-12-23T03:33:44.807Z,96.60
2022-12-23T03:36:55.790Z,110.25
2022-12-23T03:40:09.346Z,133.05
2022-12-23T03:43:20.569Z,124.18
2022-12-23T03:46:36.585Z,132.37
2022-12-23T03:49:45.610Z,116.05
2022-12-23T03:53:00.516Z,142.30
2022-12-23T03:56:08.039Z,146.98
2022-12-23T03:59:27.088Z,194.60
2022-12-23T04:02:57.683Z,136.62
2022-12-23T04:06:04.519Z,140.85
2022-12-23T04:09:07.886Z,180.37
2022-12-23T04:12:10.765Z,144.93
2022-12-23T04:15:15.361Z,148.52
2022-12-23T04:18:18.101Z,199.27
2022-12-23T04:21:20.419Z,165.25
2022-12-23T04:24:23.757Z,208.82
2022-12-23T04:27:26.073Z,237.15
2022-12-23T04:30:33.921Z,271.40
2022-12-23T04:33:37.021Z,206.23
2022-12-23T04:36:39.730Z,141.45
2022-12-23T04:39:42.017Z,269.37
2022-12-23T04:42:44.570Z,484.52
2022-12-23T04:45:50.720Z,184.18
2022-12-23T04:48:53.485Z,265.05
2022-12-23T04:51:55.798Z,147.13
2022-12-23T04:54:58.665Z,130.32
2022-12-23T04:58:01.099Z,171.48
2022-12-23T05:01:08.220Z,178.90
2022-12-23T05:04:10.608Z,129.75
2022-12-23T05:07:13.314Z,118.43
2022-12-23T05:10:15.757Z,251.10
2022-12-23T05:13:18.412Z,236.45
2022-12-23T05:16:20.975Z,83.70
2022-12-23T05:19:23.775Z,112.88
2022-12-23T05:22:26.226Z,124.53
2022-12-23T05:25:28.965Z,150.68
2022-12-23T05:28:31.816Z,185.20
2022-12-23T05:31:34.642Z,117.50
2022-12-23T05:34:39.211Z,106.90
2022-12-23T05:37:41.828Z,244.62
2022-12-23T05:40:44.093Z,105.10
2022-12-23T05:43:46.771Z,140.95
2022-12-23T05:46:49.134Z,146.40
2022-12-23T05:49:51.848Z,138.77
2022-12-23T05:52:56.013Z,106.80
2022-12-23T05:55:58.511Z,120.20
2022-12-23T05:59:00.768Z,86.75
2022-12-23T06:02:03.533Z,107.85
2022-12-23T06:05:06.981Z,73.95
2022-12-23T06:08:09.466Z,148.82
2022-12-23T06:11:12.928Z,80.78
2022-12-23T06:14:15.297Z,88.93
2022-12-23T06:17:18.251Z,101.70
2022-12-23T06:20:21.182Z,62.92
2022-12-23T06:23:24.070Z,63.55
2022-12-23T06:26:26.559Z,83.12
2022-12-23T06:29:29.733Z,68.87
2022-12-23T06:32:37.959Z,92.57
2022-12-23T06:35:41.288Z,52.75
2022-12-23T06:38:44.597Z,68.10
2022-12-23T06:41:47.156Z,89.37
2022-12-23T06:44:49.452Z,57.17
2022-12-23T06:47:52.320Z,63.50
2022-12-23T06:50:54.617Z,55.97
2022-12-23T06:53:59.541Z,55.65
2022-12-23T06:57:01.838Z,55.30
2022-12-23T07:00:06.438Z,66.43
2022-12-23T07:03:08.949Z,69.05
2022-12-23T07:06:11.786Z,62.75
2022-12-23T07:09:14.020Z,64.78
2022-12-23T07:12:16.730Z,76.82
2022-12-23T07:15:19.138Z,91.07
2022-12-23T07:18:23.180Z,74.68
2022-12-23T07:21:29.598Z,68.18
2022-12-23T07:24:32.845Z,58.65
2022-12-23T07:27:35.512Z,78.20
2022-12-23T07:30:38.527Z,75.50
2022-12-23T07:33:40.821Z,65.57
2022-12-23T07:36:43.409Z,83.78
2022-12-23T07:39:45.614Z,84.35
2022-12-23T07:42:49.888Z,80.32
2022-12-23T07:45:59.271Z,64.85
2022-12-23T07:49:02.893Z,70.32
2022-12-23T07:52:05.218Z,81.95
2022-12-23T07:55:08.632Z,67.80
2022-12-23T07:58:11.018Z,76.03
2022-12-23T08:01:13.970Z,59.33
2022-12-23T08:04:17.557Z,101.18
2022-12-23T08:07:20.208Z,59.78
2022-12-23T08:10:22.869Z,69.47
2022-12-23T08:13:25.623Z,48.38
2022-12-23T08:16:28.237Z,55.30
2022-12-23T08:19:30.532Z,52.95
2022-12-23T08:22:33.420Z,60.88
2022-12-23T08:25:35.825Z,53.45
2022-12-23T08:28:40.501Z,54.60
2022-12-23T08:31:42.861Z,59.92
2022-12-23T08:34:45.545Z,57.08
2022-12-23T08:37:47.954Z,59.83
2022-12-23T08:40:51.051Z,73.32
2022-12-23T08:43:53.699Z,59.05
2022-12-23T08:46:57.031Z,64.10
2022-12-23T08:49:59.383Z,87.15
2022-12-23T08:53:02.506Z,90.60
2022-12-23T08:56:11.125Z,65.22
2022-12-23T08:59:19.242Z,66.07
2022-12-23T09:02:22.199Z,82.07
2022-12-23T09:05:25.713Z,103.38
2022-12-23T09:08:27.964Z,81.82
2022-12-23T09:11:31.030Z,86.82
2022-12-23T09:14:33.651Z,94.75
2022-12-23T09:17:36.536Z,83.00
2022-12-23T09:20:39.156Z,84.95
2022-12-23T09:23:42.219Z,103.22
2022-12-23T09:26:44.710Z,78.12
2022-12-23T09:29:47.378Z,94.50
2022-12-23T09:32:50.062Z,84.07
2022-12-23T09:35:52.772Z,86.68
2022-12-23T09:38:55.929Z,87.75
2022-12-23T09:42:28.308Z,97.80
2022-12-23T09:46:16.952Z,77.90
2022-12-23T09:49:22.314Z,76.93
2022-12-23T09:53:05.236Z,78.55
2022-12-23T09:56:24.338Z,70.50
2022-12-23T09:59:54.266Z,75.93
2022-12-23T10:03:00.841Z,74.03
2022-12-23T10:06:22.010Z,68.43
2022-12-23T10:09:24.624Z,75.40
2022-12-23T10:12:49.229Z,65.00
2022-12-23T10:15:53.189Z,57.38
2022-12-23T10:18:58.757Z,57.33
2022-12-23T10:22:10.245Z,54.33
2022-12-23T10:25:20.501Z,58.53
2022-12-23T10:28:23.289Z,58.67
2022-12-23T10:31:54.331Z,65.22
2022-12-23T10:35:17.716Z,61.42
2022-12-23T10:38:37.548Z,67.80
2022-12-23T10:41:55.606Z,73.43
2022-12-23T10:45:16.792Z,66.72
2022-12-23T10:48:22.248Z,72.62
2022-12-23T10:51:49.103Z,74.25
2022-12-23T10:54:51.596Z,81.65
2022-12-23T10:57:59.860Z,71.65
2022-12-23T11:01:15.009Z,67.12
2022-12-23T11:04:32.688Z,81.95
2022-12-23T11:07:44.778Z,74.90
2022-12-23T11:10:49.006Z,65.43
2022-12-23T11:13:51.166Z,68.97
2022-12-23T11:16:53.777Z,64.65
2022-12-23T11:20:17.666Z,70.97
2022-12-23T11:23:26.647Z,84.90
2022-12-23T11:26:28.956Z,76.82
2022-12-23T11:29:38.822Z,90.68
2022-12-23T11:32:42.733Z,84.40
2022-12-23T11:35:45.851Z,85.68
2022-12-23T11:38:54.352Z,93.00
2022-12-23T11:42:17.941Z,84.45
2022-12-23T11:45:30.438Z,78.28
2022-12-23T11:48:33.788Z,78.43
2022-12-23T11:51:36.311Z,77.95
2022-12-23T11:54:39.699Z,95.20
2022-12-23T11:57:46.256Z,115.55
2022-12-23T12:00:56.137Z,82.03
2022-12-23T12:04:03.302Z,77.60
2022-12-23T12:07:06.845Z,98.70
2022-12-23T12:10:18.250Z,89.18
2022-12-23T12:13:32.331Z,87.68
2022-12-23T12:16:50.116Z,88.60
2022-12-23T12:20:11.288Z,84.68
2022-12-23T12:23:21.135Z,83.45
2022-12-23T12:26:30.071Z,86.53
2022-12-23T12:29:55.217Z,87.70
2022-12-23T12:33:07.077Z,76.65
2022-12-23T12:36:22.850Z,89.45
2022-12-23T12:39:38.031Z,107.50
2022-12-23T12:42:52.393Z,83.20
2022-12-23T12:46:28.538Z,91.05
2022-12-23T12:49:41.859Z,89.28
2022-12-23T12:52:44.610Z,87.65
2022-12-23T12:55:59.272Z,81.05
2022-12-23T12:59:01.593Z,97.12
2022-12-23T13:02:39.548Z,93.20
2022-12-23T13:06:16.111Z,88.68
2022-12-23T13:09:56.607Z,89.45
2022-12-23T13:13:14.025Z,85.82
2022-12-23T13:16:41.035Z,78.20
2022-12-23T13:20:16.310Z,87.12
2022-12-23T13:23:45.567Z,81.12
2022-12-23T13:27:18.513Z,88.47
2022-12-23T13:30:23.875Z,76.75
2022-12-23T13:33:36.991Z,86.55
2022-12-23T13:36:52.434Z,79.50
2022-12-23T13:40:39.941Z,91.20
2022-12-23T13:43:47.601Z,76.50
2022-12-23T13:47:14.171Z,94.05
2022-12-23T13:50:40.765Z,97.47
2022-12-23T13:53:58.031Z,93.25
2022-12-23T13:57:44.513Z,99.75
2022-12-23T14:00:47.079Z,82.68
2022-12-23T14:03:50.814Z,90.97
2022-12-23T14:06:58.938Z,84.22
2022-12-23T14:10:19.595Z,86.70
2022-12-23T14:18:15.135Z,89.32
2022-12-23T14:21:36.577Z,86.15
2022-12-23T14:25:07.064Z,140.95
2022-12-23T14:28:39.331Z,96.93
2022-12-23T14:31:47.838Z,94.72
2022-12-23T14:35:24.401Z,104.50
2022-12-23T14:38:29.904Z,87.05
2022-12-23T14:41:41.441Z,99.18
2022-12-23T14:44:46.979Z,103.82
2022-12-23T14:47:49.313Z,95.82
2022-12-23T14:50:59.281Z,99.53
2022-12-23T14:54:02.008Z,118.85
2022-12-23T14:57:17.421Z,99.97
2022-12-23T15:00:20.028Z,113.07
2022-12-23T15:03:22.734Z,121.13
2022-12-23T15:06:35.196Z,96.37
2022-12-23T15:09:47.913Z,110.10
2022-12-23T15:12:55.321Z,101.95
2022-12-23T15:16:02.732Z,148.50
2022-12-23T15:19:18.946Z,97.40
2022-12-23T15:22:30.368Z,120.47
2022-12-23T15:25:40.091Z,135.95
2022-12-23T15:28:44.124Z,124.50
2022-12-23T15:31:52.944Z,102.00
2022-12-23T15:35:05.029Z,113.35
2022-12-23T15:38:07.490Z,114.12
2022-12-23T15:41:18.742Z,147.43
2022-12-23T15:44:25.434Z,117.57
2022-12-23T15:47:30.045Z,145.18
2022-12-23T15:50:42.276Z,117.37
2022-12-23T15:53:51.385Z,112.32
2022-12-23T15:56:56.442Z,105.28
2022-12-23T16:00:02.078Z,99.07
2022-12-23T16:03:26.150Z,99.95
2022-12-23T16:06:35.480Z,110.70
2022-12-23T16:09:38.101Z,93.15
2022-12-23T16:12:43.226Z,95.80
2022-12-23T16:15:46.091Z,94.25
2022-12-23T16:18:48.838Z,98.35
2022-12-23T16:21:51.680Z,98.75
2022-12-23T16:25:06.642Z,115.30
2022-12-23T16:28:14.865Z,90.18
2022-12-23T16:31:20.230Z,95.47
2022-12-23T16:34:22.924Z,96.78
2022-12-23T16:37:26.103Z,92.00
2022-12-23T16:40:28.626Z,100.90
2022-12-23T16:43:31.700Z,113.90
2022-12-23T16:46:37.845Z,108.60
2022-12-23T16:49:40.918Z,108.55
2022-12-23T16:52:43.281Z,104.53
2022-12-23T16:55:52.516Z,91.65
2022-12-23T16:58:59.333Z,96.10
2022-12-23T17:02:03.953Z,93.53
2022-12-23T17:05:07.942Z,90.45
2022-12-23T17:08:11.902Z,90.32
2022-12-23T17:11:19.886Z,94.40
2022-12-23T17:14:25.178Z,79.15
2022-12-23T17:17:27.757Z,89.90
2022-12-23T17:20:31.209Z,90.50
2022-12-23T17:23:33.481Z,89.45
2022-12-23T17:26:36.243Z,91.00
2022-12-23T17:29:39.260Z,87.85
2022-12-23T17:32:42.295Z,90.35
2022-12-23T17:35:46.752Z,94.10
2022-12-23T17:38:49.867Z,78.65
2022-12-23T17:41:52.336Z,78.15
2022-12-23T17:44:55.495Z,82.80
2022-12-23T17:47:57.897Z,87.90
2022-12-23T17:51:01.148Z,87.65
2022-12-23T17:54:04.638Z,101.45
2022-12-23T17:57:21.015Z,121.28
2022-12-23T18:00:31.659Z,123.00
2022-12-23T18:03:36.930Z,178.75
2022-12-23T18:06:39.478Z,163.45
2022-12-23T18:09:45.961Z,240.32
2022-12-23T18:12:52.206Z,133.20
2022-12-23T18:15:55.419Z,166.62
2022-12-23T18:18:58.414Z,201.48
2022-12-23T18:22:02.174Z,199.18
2022-12-23T18:25:04.945Z,242.57
2022-12-23T18:28:09.506Z,317.48
2022-12-23T18:31:18.405Z,279.85
2022-12-23T18:34:21.762Z,176.63
2022-12-23T18:37:24.699Z,238.07
2022-12-23T18:40:32.689Z,251.95
2022-12-23T18:43:35.611Z,123.22
2022-12-23T18:46:38.529Z,331.50
2022-12-23T18:49:41.584Z,373.10
2022-12-23T18:52:46.681Z,148.70
2022-12-23T18:55:49.395Z,273.77
2022-12-23T18:58:52.475Z,159.95
2022-12-23T19:01:56.300Z,361.85
2022-12-23T19:04:59.210Z,138.40
2022-12-23T19:08:01.577Z,230.75
2022-12-23T19:11:12.944Z,109.70
2022-12-23T19:14:15.405Z,148.68
2022-12-23T19:17:18.440Z,113.88
2022-12-23T19:20:22.052Z,90.87
2022-12-23T19:23:26.397Z,147.02
2022-12-23T19:26:28.944Z,147.65
2022-12-23T19:29:32.139Z,118.75
2022-12-23T19:32:34.995Z,155.25
2022-12-23T19:35:42.140Z,196.40
2022-12-23T19:38:45.601Z,149.87
2022-12-23T19:41:48.463Z,168.48
2022-12-23T19:44:50.938Z,306.35
2022-12-23T19:47:53.756Z,232.52
2022-12-23T19:51:15.267Z,238.23
2022-12-23T19:54:19.421Z,302.38
2022-12-23T19:57:23.253Z,264.80
2022-12-23T20:00:30.946Z,154.57
2022-12-23T20:03:33.825Z,230.82
2022-12-23T20:06:39.917Z,158.15
2022-12-23T20:09:42.522Z,108.87
2022-12-23T20:12:44.788Z,261.50
2022-12-23T20:15:47.381Z,300.83
2022-12-23T20:18:49.783Z,201.80
2022-12-23T20:21:52.625Z,159.23
2022-12-23T20:24:55.181Z,225.18
2022-12-23T20:27:58.095Z,186.68
2022-12-23T20:31:07.506Z,190.50
2022-12-23T20:34:15.119Z,286.98
2022-12-23T20:37:17.659Z,269.45
2022-12-23T20:40:20.989Z,252.07
2022-12-23T20:43:23.805Z,286.48
2022-12-23T20:46:28.029Z,178.43
2022-12-23T20:49:31.243Z,301.60
2022-12-23T20:52:34.109Z,110.03
2022-12-23T20:55:36.775Z,259.02
2022-12-23T20:58:56.037Z,226.43
2022-12-23T21:02:03.142Z,307.87
2022-12-23T21:05:06.120Z,113.37
2022-12-23T21:08:08.689Z,267.33
2022-12-23T21:11:12.154Z,177.18
2022-12-23T21:14:15.409Z,203.95
2022-12-23T21:17:18.457Z,117.45
2022-12-23T21:20:20.741Z,81.25
2022-12-23T21:23:23.347Z,89.65
2022-12-23T21:26:28.626Z,80.12
2022-12-23T21:29:31.249Z,71.07
2022-12-23T21:32:33.860Z,76.37
2022-12-23T21:35:36.725Z,91.20
2022-12-23T21:38:41.553Z,80.07
2022-12-23T21:41:44.319Z,113.47
2022-12-23T21:44:47.282Z,75.65
2022-12-23T21:47:49.912Z,122.97
2022-12-23T21:50:52.215Z,103.50
2022-12-23T21:53:57.185Z,79.40
2022-12-23T21:56:59.588Z,99.80
2022-12-23T22:00:02.830Z,102.87
2022-12-23T22:03:06.678Z,77.37
2022-12-23T22:06:12.117Z,88.90
2022-12-23T22:09:19.273Z,107.12
2022-12-23T22:12:21.826Z,104.25
2022-12-23T22:15:24.086Z,136.15
2022-12-23T22:18:26.650Z,101.47
2022-12-23T22:21:31.161Z,110.03
2022-12-23T22:24:33.778Z,200.07
2022-12-23T22:27:36.011Z,159.65
2022-12-23T22:30:38.593Z,138.73
2022-12-23T22:33:41.070Z,192.37
2022-12-23T22:36:43.827Z,311.02
2022-12-23T22:39:46.512Z,139.88
2022-12-23T22:42:49.127Z,146.68
2022-12-23T22:45:58.887Z,121.95
2022-12-23T22:49:01.749Z,150.63
2022-12-23T22:52:04.806Z,116.15
2022-12-23T22:55:07.828Z,166.30
2022-12-23T22:58:10.045Z,185.95
2022-12-23T23:01:26.638Z,239.25
2022-12-23T23:04:29.233Z,245.10
2022-12-23T23:07:31.809Z,247.30
2022-12-23T23:10:34.304Z,126.25
2022-12-23T23:13:36.818Z,113.05
2022-12-23T23:16:39.240Z,146.87
2022-12-23T23:19:41.823Z,127.20
2022-12-23T23:22:44.492Z,123.05
2022-12-23T23:25:47.141Z,114.03
2022-12-23T23:28:49.419Z,96.20
2022-12-23T23:31:51.963Z,136.93
2022-12-23T23:34:54.254Z,83.93
2022-12-23T23:37:56.797Z,90.57
2022-12-23T23:40:59.013Z,85.35
2022-12-23T23:44:01.527Z,85.10
2022-12-23T23:47:03.816Z,66.65
2022-12-23T23:50:07.411Z,80.53
2022-12-23T23:53:11.503Z,74.80
2022-12-23T23:56:16.363Z,67.50
2022-12-23T23:59:20.298Z,67.90
